Time;durP1;ratioP1;P1;durP2;ratioP2;P2;SDS_P1;SDS_P2;PMS_P1;PMS_P2;Temp;Humidity;BMP_temperature;BMP_pressure;BME280_temperature;BME280_humidity;BME280_pressure;Samples;Min_cycle;Max_cycle;Signal;HPM_P1;HPM_P2
2022/12/09 00:01:32;;;;;;;43.15;22.27;;;-2.60;99.90;;;;;;5026309;28;20647;-74
2022/12/09 00:03:58;;;;;;;38.70;22.60;;;-2.60;99.90;;;;;;5029287;28;20029;-74
2022/12/09 00:06:26;;;;;;;41.33;23.27;;;-2.70;99.90;;;;;;5038183;28;20036;-75
2022/12/09 00:08:52;;;;;;;39.22;22.83;;;-2.70;99.90;;;;;;5039743;28;20512;-75
2022/12/09 00:11:19;;;;;;;44.03;24.30;;;-2.70;99.90;;;;;;5057028;28;20467;-75
2022/12/09 00:13:58;;;;;;;44.47;22.80;;;-2.70;99.90;;;;;;5070404;28;20028;-74
2022/12/09 00:16:24;;;;;;;37.92;21.92;;;-2.80;99.90;;;;;;5041868;28;20554;-74
2022/12/09 00:18:51;;;;;;;43.08;23.45;;;-2.80;99.90;;;;;;5058601;28;20111;-74
2022/12/09 00:21:22;;;;;;;42.00;23.25;;;-2.80;99.90;;;;;;5059578;28;20040;-74
2022/12/09 00:23:49;;;;;;;45.28;23.90;;;-2.70;99.90;;;;;;5057278;28;20368;-74
2022/12/09 00:26:16;;;;;;;42.13;22.65;;;-2.80;99.90;;;;;;5046887;28;20402;-75
2022/12/09 00:28:42;;;;;;;37.80;22.00;;;-2.80;99.90;;;;;;5031203;28;20022;-73
2022/12/09 00:31:14;;;;;;;37.28;21.80;;;-2.80;99.90;;;;;;5036242;28;20029;-74
2022/12/09 00:33:39;;;;;;;39.65;22.95;;;-2.90;99.90;;;;;;5065074;28;20036;-74
2022/12/09 00:36:07;;;;;;;38.33;22.60;;;-2.90;99.90;;;;;;5053705;28;20032;-74
2022/12/09 00:38:33;;;;;;;39.47;22.65;;;-2.90;99.90;;;;;;5030236;28;20021;-73
2022/12/09 00:40:59;;;;;;;35.42;22.77;;;-3.00;99.90;;;;;;5029279;28;20091;-74
2022/12/09 00:43:24;;;;;;;41.47;22.67;;;-3.00;99.90;;;;;;5032044;28;20119;-74
2022/12/09 00:45:50;;;;;;;41.60;22.50;;;-3.00;99.90;;;;;;5056323;28;20025;-74
2022/12/09 00:48:16;;;;;;;41.08;22.13;;;-3.00;99.90;;;;;;5048304;28;20067;-74
2022/12/09 00:50:41;;;;;;;43.42;22.65;;;-3.00;99.90;;;;;;5047839;28;20816;-74
2022/12/09 00:53:07;;;;;;;38.90;21.92;;;-2.90;99.90;;;;;;5048571;28;20108;-74
2022/12/09 00:55:33;;;;;;;43.83;22.52;;;-2.80;99.90;;;;;;5045160;28;20033;-74
2022/12/09 00:57:58;;;;;;;41.25;21.88;;;-2.70;99.90;;;;;;5045662;28;20110;-74
2022/12/09 01:00:24;;;;;;;37.45;21.48;;;-2.70;99.90;;;;;;5049624;28;20482;-74
2022/12/09 01:02:50;;;;;;;39.47;20.95;;;-2.70;99.90;;;;;;5047568;28;20136;-74
2022/12/09 01:05:15;;;;;;;36.90;20.42;;;-2.80;99.90;;;;;;5048844;28;20025;-75
2022/12/09 01:07:41;;;;;;;39.50;21.73;;;-2.80;99.90;;;;;;5071317;28;20029;-75
2022/12/09 01:10:07;;;;;;;41.25;21.30;;;-2.70;99.90;;;;;;5038815;28;20033;-75
2022/12/09 01:12:33;;;;;;;35.30;22.02;;;-2.70;99.90;;;;;;5050501;28;20036;-75
2022/12/09 01:14:59;;;;;;;36.65;21.10;;;-2.70;99.90;;;;;;5031844;28;20029;-74
2022/12/09 01:17:25;;;;;;;40.65;21.52;;;-2.70;99.90;;;;;;5048556;28;20092;-75
2022/12/09 01:19:51;;;;;;;38.40;21.50;;;-2.70;99.90;;;;;;5074093;28;20037;-74
2022/12/09 01:22:16;;;;;;;41.00;21.83;;;-2.70;99.90;;;;;;5059032;28;20471;-75
2022/12/09 01:24:42;;;;;;;42.45;22.90;;;-2.70;99.90;;;;;;5059701;28;20029;-74
2022/12/09 01:27:08;;;;;;;41.28;21.42;;;-2.80;99.90;;;;;;5083625;28;20029;-75
2022/12/09 01:29:33;;;;;;;42.00;22.15;;;-2.80;99.90;;;;;;5050355;28;20099;-75
2022/12/09 01:31:59;;;;;;;39.90;22.50;;;-2.80;99.90;;;;;;5048708;28;20032;-75
2022/12/09 01:34:24;;;;;;;45.78;21.63;;;-2.80;99.90;;;;;;5049610;28;20037;-74
2022/12/09 01:36:50;;;;;;;39.17;22.08;;;-2.90;99.90;;;;;;5068950;28;20025;-75
2022/12/09 01:39:16;;;;;;;34.03;22.15;;;-2.90;99.90;;;;;;5056358;28;20098;-75
2022/12/09 01:41:42;;;;;;;36.15;21.48;;;-2.90;99.90;;;;;;5047984;28;20045;-75
2022/12/09 01:44:20;;;;;;;35.67;21.60;;;-2.80;99.90;;;;;;5048259;28;20033;-75
2022/12/09 01:46:46;;;;;;;39.92;21.20;;;-2.70;99.90;;;;;;5049248;28;20502;-75
2022/12/09 01:49:41;;;;;;;38.80;22.58;;;-2.70;99.90;;;;;;5033858;28;20021;-75
2022/12/09 01:52:16;;;;;;;38.92;22.50;;;-2.70;99.90;;;;;;5047877;28;20094;-74
2022/12/09 01:54:44;;;;;;;43.53;22.20;;;-2.70;99.90;;;;;;5046782;28;20490;-74
2022/12/09 01:57:10;;;;;;;40.35;22.42;;;-2.80;99.90;;;;;;5039987;28;20032;-75
2022/12/09 01:59:37;;;;;;;41.22;20.90;;;-2.80;99.90;;;;;;5048850;28;20029;-74
2022/12/09 02:02:04;;;;;;;40.88;21.90;;;-2.80;99.90;;;;;;5035561;28;20033;-75
2022/12/09 02:04:37;;;;;;;36.95;20.20;;;-2.90;99.90;;;;;;5046812;28;20029;-74
2022/12/09 02:07:07;;;;;;;37.80;20.13;;;-2.90;99.90;;;;;;5064825;28;20036;-74
2022/12/09 02:09:32;;;;;;;39.40;19.80;;;-2.90;99.90;;;;;;5066290;28;20037;-74
2022/12/09 02:12:19;;;;;;;37.55;20.73;;;-2.90;99.90;;;;;;5050728;28;20040;-74
2022/12/09 02:14:52;;;;;;;43.28;19.98;;;-3.00;99.90;;;;;;5049055;28;20059;-74
2022/12/09 02:17:40;;;;;;;35.00;19.65;;;-3.10;99.90;;;;;;5050733;28;20024;-75
2022/12/09 02:20:21;;;;;;;40.55;20.77;;;-3.10;99.90;;;;;;5060715;28;20407;-74
2022/12/09 02:22:55;;;;;;;43.72;20.88;;;-3.20;99.90;;;;;;5047675;28;20038;-74
2022/12/09 02:25:34;;;;;;;35.60;19.73;;;-3.30;99.90;;;;;;5059387;28;20466;-74
2022/12/09 02:28:30;;;;;;;39.72;19.60;;;-3.30;99.90;;;;;;5058138;28;20665;-74
2022/12/09 02:31:22;;;;;;;33.55;19.08;;;-3.40;99.90;;;;;;5045754;28;20037;-74
2022/12/09 02:34:05;;;;;;;37.42;19.13;;;-3.30;99.90;;;;;;5039121;28;20087;-74
2022/12/09 02:36:41;;;;;;;35.80;18.95;;;-3.30;99.90;;;;;;5058998;28;20036;-74
2022/12/09 02:39:09;;;;;;;36.05;18.80;;;-3.30;99.90;;;;;;5042647;28;20506;-74
2022/12/09 02:41:38;;;;;;;31.75;17.35;;;-2.80;99.90;;;;;;5048693;28;20045;-74
2022/12/09 02:44:14;;;;;;;37.80;19.88;;;-3.30;99.90;;;;;;5047163;28;20040;-74
2022/12/09 02:46:41;;;;;;;36.53;19.35;;;-3.10;99.90;;;;;;5060745;28;20032;-74
2022/12/09 02:49:08;;;;;;;34.03;19.13;;;-3.00;99.90;;;;;;5049848;28;20368;-74
2022/12/09 02:51:36;;;;;;;30.83;16.60;;;-2.90;99.90;;;;;;5050321;28;20097;-74
2022/12/09 02:54:08;;;;;;;35.75;19.35;;;-2.80;99.90;;;;;;5064360;28;20089;-74
2022/12/09 02:56:34;;;;;;;33.47;19.55;;;-2.70;99.90;;;;;;5048364;28;20058;-73
2022/12/09 02:59:00;;;;;;;31.50;19.08;;;-2.70;99.90;;;;;;5064469;28;20398;-74
2022/12/09 03:01:48;;;;;;;31.38;18.25;;;-2.70;99.90;;;;;;5048858;28;20091;-74
2022/12/09 03:04:19;;;;;;;32.97;17.77;;;-2.60;99.90;;;;;;5049855;28;20030;-74
2022/12/09 03:06:54;;;;;;;35.67;18.55;;;-2.50;99.90;;;;;;5058228;28;20589;-74
2022/12/09 03:09:33;;;;;;;33.10;18.92;;;-2.40;99.90;;;;;;5065382;28;20375;-74
2022/12/09 03:12:05;;;;;;;36.42;19.30;;;-2.40;99.90;;;;;;5042705;28;20052;-73
2022/12/09 03:14:47;;;;;;;38.08;19.17;;;-2.30;99.90;;;;;;5044004;28;20443;-74
2022/12/09 03:17:23;;;;;;;33.85;17.63;;;-2.30;99.90;;;;;;5058381;28;20454;-74
2022/12/09 03:20:11;;;;;;;36.17;18.15;;;-2.30;99.90;;;;;;5060544;28;20063;-74
2022/12/09 03:22:41;;;;;;;32.63;17.83;;;-2.30;99.90;;;;;;5039040;28;20041;-74
2022/12/09 03:25:27;;;;;;;34.42;17.92;;;-2.30;99.90;;;;;;5033914;28;20476;-74
2022/12/09 03:28:05;;;;;;;34.05;18.60;;;-2.20;99.90;;;;;;5025307;28;20040;-74
2022/12/09 03:30:36;;;;;;;27.63;17.08;;;-2.30;99.90;;;;;;5030081;28;20021;-73
2022/12/09 03:33:03;;;;;;;35.97;18.92;;;-2.30;99.90;;;;;;5026279;28;20037;-73
2022/12/09 03:35:34;;;;;;;34.60;17.58;;;-2.30;99.90;;;;;;5029129;28;20483;-74
2022/12/09 03:38:03;;;;;;;30.58;17.10;;;-2.30;99.90;;;;;;5026762;28;20095;-74
2022/12/09 03:40:31;;;;;;;31.35;16.60;;;-2.30;99.90;;;;;;5034481;28;20037;-73
2022/12/09 03:43:11;;;;;;;36.05;18.83;;;-2.30;99.90;;;;;;5040801;28;20029;-74
2022/12/09 03:45:38;;;;;;;30.30;17.55;;;-2.30;99.90;;;;;;5044827;28;20029;-74
2022/12/09 03:48:03;;;;;;;33.58;17.65;;;-2.30;99.90;;;;;;5036467;28;20033;-74
2022/12/09 03:50:34;;;;;;;35.75;18.35;;;-2.20;99.90;;;;;;5031263;28;20041;-74
2022/12/09 03:53:08;;;;;;;32.58;17.13;;;-2.20;99.90;;;;;;5045581;28;20413;-74
2022/12/09 03:56:02;;;;;;;28.15;16.77;;;-2.30;99.90;;;;;;5046357;28;20035;-75
2022/12/09 03:58:33;;;;;;;31.65;17.02;;;-2.30;99.90;;;;;;5060385;28;20169;-74
2022/12/09 04:01:00;;;;;;;34.92;17.55;;;-2.30;99.90;;;;;;5058367;28;20123;-74
2022/12/09 04:03:26;;;;;;;36.40;17.65;;;-2.30;99.90;;;;;;5041491;28;20049;-74
2022/12/09 04:05:52;;;;;;;31.25;16.90;;;-2.30;99.90;;;;;;5058367;28;20024;-74
2022/12/09 04:08:17;;;;;;;30.85;17.90;;;-2.30;99.90;;;;;;5054362;28;20028;-74
2022/12/09 04:10:43;;;;;;;31.80;17.30;;;-2.30;99.90;;;;;;5062041;28;20033;-74
2022/12/09 04:13:08;;;;;;;33.42;17.48;;;-2.40;99.90;;;;;;5044101;28;20040;-74
2022/12/09 04:15:34;;;;;;;31.33;17.48;;;-2.50;99.90;;;;;;5040497;28;20039;-74
2022/12/09 04:18:00;;;;;;;28.63;17.92;;;-2.50;99.90;;;;;;5054528;28;20039;-74
2022/12/09 04:20:25;;;;;;;29.70;16.77;;;-2.50;99.90;;;;;;5045472;28;20036;-74
2022/12/09 04:22:51;;;;;;;30.92;18.05;;;-2.40;99.90;;;;;;5053780;28;20032;-73
2022/12/09 04:25:16;;;;;;;32.97;16.95;;;-2.40;99.90;;;;;;5063710;28;20040;-73
2022/12/09 04:27:42;;;;;;;30.40;16.95;;;-2.50;99.90;;;;;;5050940;28;20784;-73
2022/12/09 04:30:08;;;;;;;37.47;17.23;;;-2.50;99.90;;;;;;5044360;28;20395;-74
2022/12/09 04:32:34;;;;;;;33.40;18.67;;;-2.50;99.90;;;;;;5038150;28;20114;-74
2022/12/09 04:34:59;;;;;;;30.63;18.40;;;-2.50;99.90;;;;;;5058245;28;20033;-74
2022/12/09 04:37:25;;;;;;;32.92;17.85;;;-2.50;99.90;;;;;;5059042;28;20094;-74
2022/12/09 04:39:51;;;;;;;33.45;17.23;;;-2.40;99.90;;;;;;5048909;28;20051;-74
2022/12/09 04:42:16;;;;;;;32.35;17.45;;;-2.40;99.90;;;;;;5063693;28;20096;-74
2022/12/09 04:44:42;;;;;;;30.38;16.67;;;-2.40;99.90;;;;;;5048602;28;20028;-74
2022/12/09 04:47:08;;;;;;;27.67;16.75;;;-2.50;99.90;;;;;;5059221;28;20025;-73
2022/12/09 04:49:33;;;;;;;33.40;18.35;;;-2.30;99.90;;;;;;5042088;28;20033;-74
2022/12/09 04:51:59;;;;;;;33.90;17.92;;;-2.20;99.90;;;;;;5042210;28;20044;-74
2022/12/09 04:54:25;;;;;;;32.28;17.90;;;-2.10;99.90;;;;;;5056780;28;20080;-74
2022/12/09 04:56:50;;;;;;;34.17;17.77;;;-2.00;99.90;;;;;;5048179;28;20526;-74
2022/12/09 04:59:16;;;;;;;32.75;19.58;;;-1.90;99.90;;;;;;5051963;28;20127;-74
2022/12/09 05:01:41;;;;;;;30.52;18.20;;;-1.90;99.90;;;;;;5050410;28;20036;-74
2022/12/09 05:04:07;;;;;;;30.10;17.35;;;-1.80;99.90;;;;;;5048159;28;20052;-74
2022/12/09 05:06:33;;;;;;;29.15;17.15;;;-1.70;99.90;;;;;;5031456;28;20071;-74
2022/12/09 05:08:59;;;;;;;30.45;16.50;;;-1.70;99.90;;;;;;5031749;28;20490;-74
2022/12/09 05:11:24;;;;;;;31.67;16.63;;;-1.70;99.90;;;;;;5044464;28;20029;-74
2022/12/09 05:13:51;;;;;;;30.08;17.30;;;-1.70;99.90;;;;;;5041924;28;20029;-74
2022/12/09 05:16:18;;;;;;;31.23;16.45;;;-1.60;99.90;;;;;;5049455;28;20555;-74
2022/12/09 05:18:45;;;;;;;33.20;17.25;;;-1.60;99.90;;;;;;5048842;28;20059;-74
2022/12/09 05:21:14;;;;;;;37.30;18.10;;;-1.50;99.90;;;;;;5038420;28;20478;-74
2022/12/09 05:23:39;;;;;;;31.40;17.70;;;-1.50;99.90;;;;;;5029696;28;20435;-75
2022/12/09 05:26:07;;;;;;;34.20;18.70;;;-1.40;99.90;;;;;;5055991;28;20528;-74
2022/12/09 05:28:33;;;;;;;32.45;18.23;;;-1.40;99.90;;;;;;5049512;28;20061;-74
2022/12/09 05:31:00;;;;;;;34.28;19.25;;;-1.30;99.90;;;;;;5043405;28;20768;-74
2022/12/09 05:33:27;;;;;;;32.08;18.20;;;-1.30;99.90;;;;;;5049547;28;20491;-73
2022/12/09 05:35:52;;;;;;;37.33;19.50;;;-1.20;99.90;;;;;;5048717;28;20104;-74
2022/12/09 05:38:18;;;;;;;31.10;18.10;;;-1.20;99.90;;;;;;5044515;28;20135;-74
2022/12/09 05:40:44;;;;;;;36.08;19.45;;;-1.20;99.90;;;;;;5035307;28;20045;-73
2022/12/09 05:43:09;;;;;;;33.65;17.20;;;-1.20;99.90;;;;;;5042655;28;20040;-73
2022/12/09 05:45:35;;;;;;;31.15;17.67;;;-1.20;99.90;;;;;;5036731;28;20029;-73
2022/12/09 05:48:00;;;;;;;35.10;18.05;;;-1.20;99.90;;;;;;5044087;28;20064;-74
2022/12/09 05:50:26;;;;;;;33.03;17.05;;;-1.10;99.90;;;;;;5041552;28;20040;-74
2022/12/09 05:52:51;;;;;;;32.03;18.33;;;-0.90;99.90;;;;;;5035099;28;20471;-74
2022/12/09 05:55:17;;;;;;;32.53;17.60;;;-1.10;99.90;;;;;;5036228;28;20035;-74
2022/12/09 05:57:43;;;;;;;34.08;17.85;;;-1.00;99.90;;;;;;5036049;28;20083;-74
2022/12/09 06:00:09;;;;;;;27.67;15.65;;;-1.00;99.90;;;;;;5040214;28;20051;-74
2022/12/09 06:02:34;;;;;;;33.42;18.38;;;-1.00;99.90;;;;;;5034602;28;20071;-74
2022/12/09 06:05:01;;;;;;;31.05;18.88;;;-0.90;99.90;;;;;;5034766;28;20030;-74
2022/12/09 06:07:27;;;;;;;31.77;17.38;;;-0.90;99.90;;;;;;5037316;28;20487;-74
2022/12/09 06:09:52;;;;;;;32.67;18.67;;;-0.80;99.90;;;;;;5049253;28;20039;-74
2022/12/09 06:12:18;;;;;;;29.98;18.58;;;-0.70;99.90;;;;;;5040911;28;20032;-74
2022/12/09 06:14:43;;;;;;;30.38;17.80;;;-0.70;99.90;;;;;;5027427;28;20490;-74
2022/12/09 06:17:09;;;;;;;43.70;20.10;;;-0.60;99.90;;;;;;5047828;28;20083;-74
2022/12/09 06:19:35;;;;;;;37.55;18.60;;;-0.60;99.90;;;;;;5036900;28;20042;-74
2022/12/09 06:22:00;;;;;;;32.33;20.13;;;-0.50;99.90;;;;;;5036701;28;20045;-74
2022/12/09 06:24:26;;;;;;;34.50;19.25;;;-0.50;99.90;;;;;;5035404;28;20396;-74
2022/12/09 06:26:55;;;;;;;37.70;19.20;;;-0.40;99.90;;;;;;5052154;28;20047;-74
2022/12/09 06:29:20;;;;;;;35.55;19.20;;;-0.40;99.90;;;;;;5047098;28;20025;-75
2022/12/09 06:31:46;;;;;;;33.88;18.85;;;-0.30;99.90;;;;;;5041113;28;20391;-74
2022/12/09 06:34:12;;;;;;;41.35;20.33;;;-0.40;99.90;;;;;;5043858;28;20029;-75
2022/12/09 06:36:37;;;;;;;35.47;19.70;;;-0.30;99.90;;;;;;5050145;28;20033;-74
2022/12/09 06:39:04;;;;;;;39.67;21.70;;;-0.30;99.90;;;;;;5034522;28;20033;-75
2022/12/09 06:41:30;;;;;;;36.65;21.23;;;-0.30;99.90;;;;;;5042834;28;20136;-74
2022/12/09 06:43:57;;;;;;;39.42;20.52;;;-0.30;99.90;;;;;;5041706;28;20061;-74
2022/12/09 06:46:23;;;;;;;36.42;20.17;;;-0.30;99.90;;;;;;5031161;28;20030;-75
2022/12/09 06:48:49;;;;;;;34.70;19.83;;;-0.20;99.90;;;;;;5045929;28;20047;-74
2022/12/09 06:51:16;;;;;;;39.25;20.60;;;-0.20;99.90;;;;;;5047722;28;20499;-74
2022/12/09 06:53:41;;;;;;;41.17;21.90;;;-0.10;99.90;;;;;;5044920;28;20032;-74
2022/12/09 06:56:09;;;;;;;39.67;20.70;;;-0.10;99.90;;;;;;5033726;28;20029;-75
2022/12/09 06:58:35;;;;;;;35.83;20.73;;;-0.10;99.90;;;;;;5037597;28;20029;-74
2022/12/09 07:01:12;;;;;;;48.00;23.20;;;-0.10;99.90;;;;;;5030929;28;20049;-75
2022/12/09 07:03:38;;;;;;;43.25;21.77;;;0.00;99.90;;;;;;5041866;28;20032;-74
2022/12/09 07:06:04;;;;;;;40.40;21.73;;;0.00;99.90;;;;;;5049931;28;20060;-74
2022/12/09 07:08:30;;;;;;;37.75;21.50;;;0.00;99.90;;;;;;5041788;28;20056;-74
2022/12/09 07:10:55;;;;;;;36.13;19.58;;;0.10;99.90;;;;;;5030997;28;20091;-74
2022/12/09 07:13:21;;;;;;;37.25;21.55;;;0.10;99.90;;;;;;5031634;28;20067;-74
2022/12/09 07:15:47;;;;;;;45.13;23.67;;;0.10;99.90;;;;;;5036862;28;20075;-75
2022/12/09 07:18:12;;;;;;;39.00;21.95;;;0.10;99.90;;;;;;5041133;28;20082;-74
2022/12/09 07:20:38;;;;;;;46.05;23.75;;;0.10;99.90;;;;;;5032859;28;20414;-75
2022/12/09 07:23:03;;;;;;;47.40;23.88;;;0.10;99.90;;;;;;5042155;28;20025;-74
2022/12/09 07:25:29;;;;;;;46.28;23.08;;;0.20;99.90;;;;;;5034095;28;20034;-74
2022/12/09 07:27:54;;;;;;;43.70;22.08;;;0.20;99.90;;;;;;5043166;28;20036;-74
2022/12/09 07:30:20;;;;;;;43.42;23.20;;;0.20;99.90;;;;;;5041275;28;20035;-74
2022/12/09 07:32:46;;;;;;;42.03;22.00;;;0.20;99.90;;;;;;5043863;28;20430;-74
2022/12/09 07:35:12;;;;;;;43.05;22.55;;;0.20;99.90;;;;;;5044462;28;20068;-75
2022/12/09 07:37:37;;;;;;;44.78;23.35;;;0.20;99.90;;;;;;5038973;28;20471;-74
2022/12/09 07:40:03;;;;;;;44.13;24.05;;;0.20;99.90;;;;;;5039931;28;20467;-74
2022/12/09 07:42:29;;;;;;;45.03;24.25;;;0.20;99.90;;;;;;5042974;28;20175;-74
2022/12/09 07:44:55;;;;;;;51.10;25.75;;;0.20;99.90;;;;;;5042013;28;20063;-74
2022/12/09 07:47:20;;;;;;;51.53;23.95;;;0.20;99.90;;;;;;5041627;28;20033;-74
2022/12/09 07:49:46;;;;;;;45.42;22.27;;;0.20;99.90;;;;;;5028128;28;20029;-74
2022/12/09 07:52:12;;;;;;;42.97;23.50;;;0.20;99.90;;;;;;5028774;28;20121;-74
2022/12/09 07:54:37;;;;;;;40.13;22.60;;;0.20;99.90;;;;;;5038608;28;20025;-74
2022/12/09 07:57:03;;;;;;;48.28;25.42;;;0.20;99.90;;;;;;5037586;28;20031;-75
2022/12/09 07:59:29;;;;;;;50.20;25.15;;;0.30;99.90;;;;;;5052562;28;20024;-74
2022/12/09 08:01:54;;;;;;;45.10;23.83;;;0.30;99.90;;;;;;5046772;28;20524;-74
2022/12/09 08:04:20;;;;;;;49.08;25.23;;;0.30;99.90;;;;;;5049152;28;20623;-74
2022/12/09 08:06:45;;;;;;;47.25;24.05;;;0.30;99.90;;;;;;5042395;28;20029;-74
2022/12/09 08:09:12;;;;;;;53.58;25.20;;;0.30;99.90;;;;;;5047943;28;20021;-75
2022/12/09 08:11:39;;;;;;;46.33;24.10;;;0.30;99.90;;;;;;5040525;28;20632;-75
2022/12/09 08:14:06;;;;;;;40.22;22.13;;;0.30;99.90;;;;;;5045951;28;20059;-74
2022/12/09 08:16:32;;;;;;;48.78;23.75;;;0.40;99.90;;;;;;5036313;28;20056;-74
2022/12/09 08:18:58;;;;;;;46.25;24.25;;;0.40;99.90;;;;;;5032657;28;20029;-74
2022/12/09 08:21:26;;;;;;;46.65;23.60;;;0.40;99.90;;;;;;5038041;28;20029;-75
2022/12/09 08:23:54;;;;;;;46.03;24.38;;;0.50;99.90;;;;;;5043070;28;20128;-74
2022/12/09 08:26:21;;;;;;;46.53;24.02;;;0.50;99.90;;;;;;5028928;28;20030;-75
2022/12/09 08:28:47;;;;;;;46.28;23.45;;;0.50;99.90;;;;;;5058339;28;20057;-74
2022/12/09 08:31:15;;;;;;;46.83;22.58;;;0.40;99.90;;;;;;5030575;28;20462;-74
2022/12/09 08:33:41;;;;;;;50.47;24.10;;;0.50;99.90;;;;;;5035584;28;20095;-74
2022/12/09 08:36:13;;;;;;;53.17;25.20;;;0.50;99.90;;;;;;5032928;28;20033;-74
2022/12/09 08:38:39;;;;;;;42.78;22.63;;;0.50;99.90;;;;;;5030565;28;20120;-75
2022/12/09 08:41:18;;;;;;;55.05;26.70;;;0.60;99.90;;;;;;5039945;28;20144;-74
2022/12/09 08:43:44;;;;;;;49.30;23.88;;;0.60;99.90;;;;;;5039108;28;20175;-74
2022/12/09 08:46:11;;;;;;;46.00;24.40;;;0.70;99.90;;;;;;5044326;28;20559;-76
2022/12/09 08:48:41;;;;;;;58.47;25.63;;;0.70;99.90;;;;;;5040166;28;20022;-76
2022/12/09 08:51:09;;;;;;;56.70;27.17;;;0.90;99.90;;;;;;5029863;28;20191;-76
2022/12/09 08:53:34;;;;;;;49.33;23.95;;;0.80;99.90;;;;;;5037451;28;20052;-76
2022/12/09 08:56:12;;;;;;;50.55;26.25;;;0.90;99.90;;;;;;5035087;28;20030;-76
2022/12/09 08:58:37;;;;;;;49.50;25.30;;;0.90;99.90;;;;;;5041408;28;20076;-75
2022/12/09 09:01:03;;;;;;;51.55;24.92;;;0.90;99.90;;;;;;5028305;28;20077;-75
2022/12/09 09:03:29;;;;;;;48.15;23.83;;;1.00;99.90;;;;;;5040856;28;20037;-75
2022/12/09 09:06:01;;;;;;;46.00;25.40;;;1.00;99.90;;;;;;5045723;28;20035;-76
2022/12/09 09:08:26;;;;;;;42.83;23.13;;;1.00;99.90;;;;;;5049953;28;20028;-76
2022/12/09 09:10:52;;;;;;;42.28;24.20;;;1.10;99.90;;;;;;5058472;28;20062;-75
2022/12/09 09:13:17;;;;;;;51.90;24.23;;;1.10;99.90;;;;;;5044296;28;20034;-76
2022/12/09 09:15:43;;;;;;;51.50;24.98;;;1.10;99.90;;;;;;5080538;28;20649;-76
2022/12/09 09:18:08;;;;;;;45.33;24.08;;;1.20;99.90;;;;;;5069741;28;20025;-76
2022/12/09 09:20:34;;;;;;;50.58;25.60;;;1.20;99.90;;;;;;5063311;28;20775;-76
2022/12/09 09:23:00;;;;;;;49.17;22.38;;;1.10;99.90;;;;;;5057337;28;20032;-76
2022/12/09 09:25:25;;;;;;;48.65;23.65;;;1.20;99.90;;;;;;5061612;28;20030;-76
2022/12/09 09:27:51;;;;;;;50.95;22.40;;;1.20;99.90;;;;;;5065935;28;20029;-74
2022/12/09 09:30:16;;;;;;;48.88;23.38;;;1.20;99.90;;;;;;5042121;28;20029;-76
2022/12/09 09:32:42;;;;;;;50.28;23.83;;;1.20;99.90;;;;;;5041624;28;20629;-75
2022/12/09 09:35:07;;;;;;;47.53;23.88;;;1.30;99.90;;;;;;5046282;28;20037;-76
2022/12/09 09:37:33;;;;;;;50.20;24.45;;;1.30;99.90;;;;;;5032964;28;20025;-76
2022/12/09 09:39:59;;;;;;;48.05;23.50;;;1.30;99.90;;;;;;5035404;28;20079;-76
2022/12/09 09:42:34;;;;;;;46.17;23.92;;;1.40;99.90;;;;;;5039787;28;20041;-76
2022/12/09 09:45:05;;;;;;;48.28;23.60;;;1.30;99.90;;;;;;5032849;28;20024;-77
2022/12/09 09:47:49;;;;;;;49.28;23.92;;;1.30;99.90;;;;;;5034037;28;20030;-76
2022/12/09 09:50:27;;;;;;;47.92;22.77;;;1.30;99.90;;;;;;5029097;28;20776;-76
2022/12/09 09:52:54;;;;;;;50.25;23.20;;;1.30;99.90;;;;;;5042454;28;20399;-76
2022/12/09 09:55:34;;;;;;;49.35;23.13;;;1.30;99.90;;;;;;5034988;28;20034;-75
2022/12/09 09:58:25;;;;;;;57.08;25.15;;;1.40;99.90;;;;;;5038490;28;20029;-76
2022/12/09 10:00:56;;;;;;;58.25;24.00;;;1.40;99.90;;;;;;5040999;28;20038;-75
2022/12/09 10:03:31;;;;;;;53.80;24.20;;;1.50;99.90;;;;;;5032606;28;20075;-75
2022/12/09 10:06:04;;;;;;;47.13;22.98;;;1.50;99.90;;;;;;5048623;28;20021;-76
2022/12/09 10:08:57;;;;;;;55.05;23.90;;;1.50;99.90;;;;;;5048318;28;20032;-75
2022/12/09 10:11:33;;;;;;;51.97;23.52;;;1.50;99.90;;;;;;5032439;28;20116;-75
2022/12/09 10:14:50;;;;;;;55.78;23.27;;;1.60;99.90;;;;;;5051439;28;20070;-76
2022/12/09 10:17:34;;;;;;;56.78;21.88;;;1.60;99.90;;;;;;5033112;28;20044;-77
2022/12/09 10:20:04;;;;;;;50.10;23.58;;;1.60;99.90;;;;;;5054278;28;20598;-75
2022/12/09 10:22:43;;;;;;;54.85;23.27;;;1.60;99.90;;;;;;5039821;28;20037;-75
2022/12/09 10:25:27;;;;;;;54.92;21.83;;;1.70;99.90;;;;;;5046089;28;20034;-77
2022/12/09 10:28:03;;;;;;;55.20;22.05;;;1.70;99.90;;;;;;5032984;28;20044;-76
2022/12/09 10:30:29;;;;;;;55.65;22.85;;;1.80;99.90;;;;;;5040942;28;20025;-75
2022/12/09 10:32:54;;;;;;;58.42;23.65;;;1.80;99.90;;;;;;5064476;28;20275;-76
2022/12/09 10:35:23;;;;;;;57.35;24.17;;;1.80;99.90;;;;;;5032502;28;20033;-75
2022/12/09 10:37:51;;;;;;;53.03;22.13;;;1.80;99.90;;;;;;5036940;28;20086;-75
2022/12/09 10:40:45;;;;;;;54.88;22.63;;;1.90;99.90;;;;;;5044287;28;20036;-75
2022/12/09 10:43:33;;;;;;;48.72;21.95;;;1.90;99.90;;;;;;5066840;28;20085;-74
2022/12/09 10:46:00;;;;;;;54.60;23.48;;;2.00;99.90;;;;;;5066420;28;20024;-75
2022/12/09 10:48:51;;;;;;;50.72;22.63;;;2.00;99.90;;;;;;5043853;28;20056;-77
2022/12/09 10:51:21;;;;;;;49.83;22.08;;;2.00;99.90;;;;;;5038162;28;20119;-75
2022/12/09 10:53:54;;;;;;;48.17;22.25;;;2.10;99.90;;;;;;5026846;28;20037;-75
2022/12/09 10:56:26;;;;;;;55.67;22.20;;;2.10;99.90;;;;;;5041582;28;20059;-75
2022/12/09 10:59:17;;;;;;;50.85;21.05;;;2.20;99.90;;;;;;5041580;28;20033;-75
2022/12/09 11:01:59;;;;;;;43.78;20.02;;;2.30;99.90;;;;;;5036765;28;20120;-75
2022/12/09 11:04:31;;;;;;;45.05;19.83;;;2.30;99.90;;;;;;5035010;28;20542;-75
2022/12/09 11:07:18;;;;;;;45.65;20.00;;;2.30;99.90;;;;;;5042699;28;20029;-75
2022/12/09 11:09:54;;;;;;;49.55;22.10;;;2.40;99.90;;;;;;5031647;28;20037;-75
2022/12/09 11:12:26;;;;;;;48.45;19.60;;;2.40;99.90;;;;;;5032641;28;20036;-74
2022/12/09 11:14:57;;;;;;;49.85;21.17;;;2.40;99.90;;;;;;5025955;28;20060;-76
2022/12/09 11:17:28;;;;;;;47.80;21.50;;;2.50;99.90;;;;;;5033418;28;20029;-75
2022/12/09 11:20:15;;;;;;;52.95;21.73;;;2.50;99.90;;;;;;5032214;28;20053;-77
2022/12/09 11:22:44;;;;;;;53.20;24.55;;;2.60;99.90;;;;;;5028500;28;20116;-76
2022/12/09 11:25:26;;;;;;;52.20;22.33;;;2.60;99.90;;;;;;5028130;28;20642;-76
2022/12/09 11:28:19;;;;;;;48.47;20.30;;;2.60;99.90;;;;;;5041897;28;20420;-75
2022/12/09 11:30:56;;;;;;;46.28;20.88;;;2.60;99.90;;;;;;5022264;28;20075;-77
2022/12/09 11:33:31;;;;;;;45.40;19.98;;;2.70;99.90;;;;;;5037103;28;20112;-77
2022/12/09 11:36:16;;;;;;;43.67;18.90;;;2.80;99.90;;;;;;5046099;28;20037;-77
2022/12/09 11:38:45;;;;;;;42.60;20.05;;;2.80;99.90;;;;;;5028565;28;20408;-75
2022/12/09 11:41:10;;;;;;;47.25;19.20;;;2.90;99.90;;;;;;5037367;28;20144;-76
2022/12/09 11:43:55;;;;;;;44.53;19.25;;;3.00;99.90;;;;;;5025242;28;20183;-76
2022/12/09 11:46:24;;;;;;;44.55;19.67;;;3.00;99.90;;;;;;5038186;28;20526;-76
2022/12/09 11:49:11;;;;;;;39.50;18.02;;;3.00;99.90;;;;;;5029200;28;20025;-76
2022/12/09 11:51:40;;;;;;;43.25;19.10;;;2.90;99.90;;;;;;5034824;28;21124;-77
2022/12/09 11:54:09;;;;;;;43.42;19.25;;;2.70;99.90;;;;;;5048199;28;20059;-76
2022/12/09 11:56:37;;;;;;;41.08;17.92;;;2.70;99.90;;;;;;5048564;28;20089;-77
2022/12/09 11:59:12;;;;;;;43.10;18.90;;;2.70;99.90;;;;;;5047475;28;20038;-75
2022/12/09 12:01:53;;;;;;;38.00;18.10;;;2.70;99.90;;;;;;5028154;28;20037;-74
2022/12/09 12:04:39;;;;;;;41.72;18.13;;;2.80;99.90;;;;;;5038949;28;20029;-76
2022/12/09 12:07:14;;;;;;;34.88;17.17;;;2.80;99.90;;;;;;5044619;28;20029;-75
2022/12/09 12:09:57;;;;;;;40.85;17.88;;;2.90;99.90;;;;;;5040391;28;20048;-76
2022/12/09 12:12:59;;;;;;;42.55;19.17;;;2.90;99.90;;;;;;5040231;28;20068;-77
2022/12/09 12:15:35;;;;;;;36.15;17.55;;;2.90;99.90;;;;;;5026416;28;20049;-79
2022/12/09 12:18:04;;;;;;;40.58;18.60;;;2.90;99.90;;;;;;5029690;28;20526;-74
2022/12/09 12:20:56;;;;;;;38.88;18.48;;;3.00;99.90;;;;;;5044700;28;20056;-75
2022/12/09 12:23:48;;;;;;;40.20;18.40;;;3.10;99.90;;;;;;5038854;28;20029;-77
2022/12/09 12:26:22;;;;;;;36.05;17.60;;;3.10;99.90;;;;;;5029390;28;20112;-77
2022/12/09 12:29:02;;;;;;;37.72;16.95;;;3.20;99.90;;;;;;5030375;28;20037;-76
2022/12/09 12:31:55;;;;;;;42.70;19.42;;;3.20;99.90;;;;;;5041872;28;20041;-77
2022/12/09 12:34:49;;;;;;;37.08;17.73;;;3.20;99.90;;;;;;5037128;28;20091;-79
2022/12/09 12:37:34;;;;;;;38.50;17.95;;;3.20;99.90;;;;;;5045061;28;20468;-80
2022/12/09 12:40:06;;;;;;;35.90;18.08;;;3.20;99.90;;;;;;5027324;28;20131;-77
2022/12/09 12:49:01;;;;;;;36.80;16.88;;;3.40;99.90;;;;;;5039010;28;20470;-75
2022/12/09 12:51:41;;;;;;;35.88;17.30;;;3.40;99.90;;;;;;5025983;28;20073;-73
2022/12/09 12:54:19;;;;;;;34.90;16.42;;;3.50;99.90;;;;;;5028717;28;20033;-75